sensor_id;sensor_type;location;lat;lon;timestamp;P1;durP1;ratioP1;P2;durP2;ratioP2
68821;SDS011;55834;50.870;4.606;2023-02-15T00:01:37;34.30;;;14.70;;
68821;SDS011;55834;50.870;4.606;2023-02-15T00:04:04;30.20;;;13.55;;
68821;SDS011;55834;50.870;4.606;2023-02-15T00:06:30;37.90;;;15.60;;
68821;SDS011;55834;50.870;4.606;2023-02-15T00:08:55;32.97;;;15.13;;
68821;SDS011;55834;50.870;4.606;2023-02-15T00:11:22;34.90;;;14.65;;
68821;SDS011;55834;50.870;4.606;2023-02-15T00:14:08;29.23;;;14.70;;
68821;SDS011;55834;50.870;4.606;2023-02-15T00:16:40;29.20;;;14.98;;
68821;SDS011;55834;50.870;4.606;2023-02-15T00:19:07;27.10;;;13.85;;
68821;SDS011;55834;50.870;4.606;2023-02-15T00:21:33;25.83;;;13.68;;
68821;SDS011;55834;50.870;4.606;2023-02-15T00:24:01;32.63;;;15.90;;
68821;SDS011;55834;50.870;4.606;2023-02-15T00:28:54;36.63;;;15.70;;
68821;SDS011;55834;50.870;4.606;2023-02-15T00:31:21;34.72;;;16.13;;
68821;SDS011;55834;50.870;4.606;2023-02-15T00:33:47;34.00;;;13.95;;
68821;SDS011;55834;50.870;4.606;2023-02-15T00:36:12;37.55;;;17.95;;
68821;SDS011;55834;50.870;4.606;2023-02-15T00:38:39;31.58;;;15.93;;
68821;SDS011;55834;50.870;4.606;2023-02-15T00:41:05;34.05;;;15.13;;
68821;SDS011;55834;50.870;4.606;2023-02-15T00:43:32;30.33;;;14.45;;
68821;SDS011;55834;50.870;4.606;2023-02-15T00:45:58;29.98;;;14.95;;
68821;SDS011;55834;50.870;4.606;2023-02-15T00:48:24;30.70;;;16.42;;
68821;SDS011;55834;50.870;4.606;2023-02-15T00:50:51;33.45;;;16.65;;
68821;SDS011;55834;50.870;4.606;2023-02-15T00:53:19;28.45;;;15.77;;
68821;SDS011;55834;50.870;4.606;2023-02-15T00:55:44;25.38;;;13.48;;
68821;SDS011;55834;50.870;4.606;2023-02-15T00:58:10;31.10;;;15.63;;
68821;SDS011;55834;50.870;4.606;2023-02-15T01:00:37;25.17;;;12.80;;
68821;SDS011;55834;50.870;4.606;2023-02-15T01:03:03;31.63;;;15.57;;
68821;SDS011;55834;50.870;4.606;2023-02-15T01:05:29;29.17;;;15.35;;
68821;SDS011;55834;50.870;4.606;2023-02-15T01:07:55;29.90;;;14.73;;
68821;SDS011;55834;50.870;4.606;2023-02-15T01:10:21;28.60;;;14.98;;
68821;SDS011;55834;50.870;4.606;2023-02-15T01:12:47;30.15;;;15.45;;
68821;SDS011;55834;50.870;4.606;2023-02-15T01:15:13;34.67;;;16.60;;
68821;SDS011;55834;50.870;4.606;2023-02-15T01:17:38;36.90;;;17.27;;
68821;SDS011;55834;50.870;4.606;2023-02-15T01:20:04;32.10;;;15.90;;
68821;SDS011;55834;50.870;4.606;2023-02-15T01:22:30;33.53;;;17.27;;
68821;SDS011;55834;50.870;4.606;2023-02-15T01:24:55;36.63;;;17.33;;
68821;SDS011;55834;50.870;4.606;2023-02-15T01:27:21;30.60;;;18.17;;
68821;SDS011;55834;50.870;4.606;2023-02-15T01:29:46;35.73;;;17.37;;
68821;SDS011;55834;50.870;4.606;2023-02-15T01:32:12;35.38;;;18.17;;
68821;SDS011;55834;50.870;4.606;2023-02-15T01:34:37;37.17;;;19.15;;
68821;SDS011;55834;50.870;4.606;2023-02-15T01:37:03;35.00;;;18.40;;
68821;SDS011;55834;50.870;4.606;2023-02-15T01:39:28;34.67;;;19.97;;
68821;SDS011;55834;50.870;4.606;2023-02-15T01:41:53;38.53;;;19.77;;
68821;SDS011;55834;50.870;4.606;2023-02-15T01:47:39;35.08;;;18.15;;
68821;SDS011;55834;50.870;4.606;2023-02-15T01:52:52;42.03;;;20.73;;
68821;SDS011;55834;50.870;4.606;2023-02-15T01:55:25;46.58;;;21.90;;
68821;SDS011;55834;50.870;4.606;2023-02-15T01:57:55;44.10;;;21.17;;
68821;SDS011;55834;50.870;4.606;2023-02-15T02:00:20;49.20;;;23.10;;
68821;SDS011;55834;50.870;4.606;2023-02-15T02:02:47;43.35;;;21.63;;
68821;SDS011;55834;50.870;4.606;2023-02-15T02:05:15;35.22;;;18.63;;
68821;SDS011;55834;50.870;4.606;2023-02-15T02:07:41;41.17;;;20.37;;
68821;SDS011;55834;50.870;4.606;2023-02-15T02:10:15;40.75;;;20.98;;
68821;SDS011;55834;50.870;4.606;2023-02-15T02:12:43;37.13;;;21.63;;
68821;SDS011;55834;50.870;4.606;2023-02-15T02:15:10;47.17;;;23.73;;
68821;SDS011;55834;50.870;4.606;2023-02-15T02:17:42;39.08;;;19.70;;
68821;SDS011;55834;50.870;4.606;2023-02-15T02:26:05;37.65;;;19.58;;
68821;SDS011;55834;50.870;4.606;2023-02-15T02:28:47;38.47;;;19.42;;
68821;SDS011;55834;50.870;4.606;2023-02-15T02:34:14;36.33;;;16.40;;
68821;SDS011;55834;50.870;4.606;2023-02-15T02:37:08;31.23;;;16.98;;
68821;SDS011;55834;50.870;4.606;2023-02-15T02:39:37;39.80;;;18.42;;
68821;SDS011;55834;50.870;4.606;2023-02-15T02:45:09;30.67;;;15.93;;
68821;SDS011;55834;50.870;4.606;2023-02-15T02:50:17;34.22;;;16.83;;
68821;SDS011;55834;50.870;4.606;2023-02-15T02:52:48;36.20;;;18.88;;
68821;SDS011;55834;50.870;4.606;2023-02-15T02:55:22;33.60;;;16.20;;
68821;SDS011;55834;50.870;4.606;2023-02-15T02:58:00;31.95;;;18.17;;
68821;SDS011;55834;50.870;4.606;2023-02-15T03:00:32;28.92;;;16.45;;
68821;SDS011;55834;50.870;4.606;2023-02-15T03:03:09;31.50;;;15.98;;
68821;SDS011;55834;50.870;4.606;2023-02-15T03:05:41;36.22;;;17.45;;
68821;SDS011;55834;50.870;4.606;2023-02-15T03:08:09;33.15;;;17.88;;
68821;SDS011;55834;50.870;4.606;2023-02-15T03:10:37;29.60;;;15.30;;
68821;SDS011;55834;50.870;4.606;2023-02-15T03:13:04;32.17;;;17.63;;
68821;SDS011;55834;50.870;4.606;2023-02-15T03:15:31;29.70;;;15.60;;
68821;SDS011;55834;50.870;4.606;2023-02-15T03:18:21;27.60;;;15.55;;
68821;SDS011;55834;50.870;4.606;2023-02-15T03:20:50;30.75;;;17.23;;
68821;SDS011;55834;50.870;4.606;2023-02-15T03:23:18;32.70;;;16.98;;
68821;SDS011;55834;50.870;4.606;2023-02-15T03:25:50;30.60;;;15.73;;
68821;SDS011;55834;50.870;4.606;2023-02-15T03:28:23;31.13;;;17.55;;
68821;SDS011;55834;50.870;4.606;2023-02-15T03:30:55;35.63;;;17.13;;
68821;SDS011;55834;50.870;4.606;2023-02-15T03:33:23;33.97;;;16.30;;
68821;SDS011;55834;50.870;4.606;2023-02-15T03:38:46;34.17;;;16.48;;
68821;SDS011;55834;50.870;4.606;2023-02-15T03:41:18;32.58;;;18.25;;
68821;SDS011;55834;50.870;4.606;2023-02-15T03:43:47;29.42;;;14.63;;
68821;SDS011;55834;50.870;4.606;2023-02-15T03:48:54;33.15;;;17.55;;
68821;SDS011;55834;50.870;4.606;2023-02-15T03:51:26;28.27;;;14.45;;
68821;SDS011;55834;50.870;4.606;2023-02-15T03:54:02;28.67;;;16.25;;
68821;SDS011;55834;50.870;4.606;2023-02-15T03:56:30;35.35;;;17.70;;
68821;SDS011;55834;50.870;4.606;2023-02-15T03:58:56;32.28;;;17.35;;
68821;SDS011;55834;50.870;4.606;2023-02-15T04:01:40;26.25;;;13.75;;
68821;SDS011;55834;50.870;4.606;2023-02-15T04:04:41;33.53;;;16.83;;
68821;SDS011;55834;50.870;4.606;2023-02-15T04:07:09;29.38;;;15.38;;
68821;SDS011;55834;50.870;4.606;2023-02-15T04:09:35;32.85;;;16.05;;
68821;SDS011;55834;50.870;4.606;2023-02-15T04:12:19;28.30;;;15.48;;
68821;SDS011;55834;50.870;4.606;2023-02-15T04:14:45;30.05;;;15.07;;
68821;SDS011;55834;50.870;4.606;2023-02-15T04:17:29;32.13;;;17.05;;
68821;SDS011;55834;50.870;4.606;2023-02-15T04:19:54;27.40;;;14.87;;
68821;SDS011;55834;50.870;4.606;2023-02-15T04:22:39;35.17;;;15.57;;
68821;SDS011;55834;50.870;4.606;2023-02-15T04:25:24;28.33;;;14.15;;
68821;SDS011;55834;50.870;4.606;2023-02-15T04:27:50;29.23;;;16.85;;
68821;SDS011;55834;50.870;4.606;2023-02-15T04:30:17;30.73;;;15.77;;
68821;SDS011;55834;50.870;4.606;2023-02-15T04:32:45;33.45;;;17.23;;
68821;SDS011;55834;50.870;4.606;2023-02-15T04:35:11;30.52;;;15.55;;
68821;SDS011;55834;50.870;4.606;2023-02-15T04:37:36;28.80;;;15.15;;
68821;SDS011;55834;50.870;4.606;2023-02-15T04:40:03;33.63;;;18.55;;
68821;SDS011;55834;50.870;4.606;2023-02-15T04:42:29;27.50;;;15.77;;
68821;SDS011;55834;50.870;4.606;2023-02-15T04:44:54;30.43;;;14.90;;
68821;SDS011;55834;50.870;4.606;2023-02-15T04:47:20;32.20;;;16.73;;
68821;SDS011;55834;50.870;4.606;2023-02-15T04:49:45;33.60;;;16.63;;
68821;SDS011;55834;50.870;4.606;2023-02-15T04:52:10;33.70;;;18.02;;
68821;SDS011;55834;50.870;4.606;2023-02-15T04:54:36;29.63;;;15.80;;
68821;SDS011;55834;50.870;4.606;2023-02-15T04:57:02;30.50;;;18.67;;
68821;SDS011;55834;50.870;4.606;2023-02-15T04:59:28;29.02;;;14.52;;
68821;SDS011;55834;50.870;4.606;2023-02-15T05:01:53;29.33;;;15.63;;
68821;SDS011;55834;50.870;4.606;2023-02-15T05:04:18;32.87;;;16.33;;
68821;SDS011;55834;50.870;4.606;2023-02-15T05:06:44;34.50;;;15.70;;
68821;SDS011;55834;50.870;4.606;2023-02-15T05:09:10;32.75;;;17.20;;
68821;SDS011;55834;50.870;4.606;2023-02-15T05:11:36;31.42;;;15.32;;
68821;SDS011;55834;50.870;4.606;2023-02-15T05:14:01;37.00;;;18.53;;
68821;SDS011;55834;50.870;4.606;2023-02-15T05:16:27;34.63;;;16.83;;
68821;SDS011;55834;50.870;4.606;2023-02-15T05:18:52;34.67;;;15.90;;
68821;SDS011;55834;50.870;4.606;2023-02-15T05:21:18;29.00;;;16.70;;
68821;SDS011;55834;50.870;4.606;2023-02-15T05:23:43;32.33;;;16.77;;
68821;SDS011;55834;50.870;4.606;2023-02-15T05:26:10;34.40;;;16.13;;
68821;SDS011;55834;50.870;4.606;2023-02-15T05:28:55;35.35;;;18.65;;
68821;SDS011;55834;50.870;4.606;2023-02-15T05:31:21;34.53;;;18.33;;
68821;SDS011;55834;50.870;4.606;2023-02-15T05:33:46;29.60;;;16.15;;
68821;SDS011;55834;50.870;4.606;2023-02-15T05:36:12;32.83;;;16.98;;
68821;SDS011;55834;50.870;4.606;2023-02-15T05:38:37;80.65;;;29.83;;
68821;SDS011;55834;50.870;4.606;2023-02-15T05:41:04;64.55;;;25.80;;
68821;SDS011;55834;50.870;4.606;2023-02-15T05:43:29;41.00;;;17.92;;
68821;SDS011;55834;50.870;4.606;2023-02-15T05:45:56;35.05;;;18.40;;
68821;SDS011;55834;50.870;4.606;2023-02-15T05:48:22;38.65;;;17.45;;
68821;SDS011;55834;50.870;4.606;2023-02-15T05:53:35;45.03;;;20.83;;
68821;SDS011;55834;50.870;4.606;2023-02-15T05:56:02;53.08;;;22.52;;
68821;SDS011;55834;50.870;4.606;2023-02-15T05:58:29;50.72;;;22.42;;
68821;SDS011;55834;50.870;4.606;2023-02-15T06:00:56;51.97;;;23.10;;
68821;SDS011;55834;50.870;4.606;2023-02-15T06:03:22;40.92;;;21.20;;
68821;SDS011;55834;50.870;4.606;2023-02-15T06:05:50;46.70;;;21.80;;
68821;SDS011;55834;50.870;4.606;2023-02-15T06:08:15;39.42;;;18.98;;
68821;SDS011;55834;50.870;4.606;2023-02-15T06:10:41;35.72;;;17.50;;
68821;SDS011;55834;50.870;4.606;2023-02-15T06:13:06;35.97;;;19.00;;
68821;SDS011;55834;50.870;4.606;2023-02-15T06:15:32;35.35;;;17.92;;
68821;SDS011;55834;50.870;4.606;2023-02-15T06:17:58;34.60;;;19.13;;
68821;SDS011;55834;50.870;4.606;2023-02-15T06:20:23;35.15;;;17.25;;
68821;SDS011;55834;50.870;4.606;2023-02-15T06:22:48;40.07;;;17.37;;
68821;SDS011;55834;50.870;4.606;2023-02-15T06:25:14;36.00;;;17.47;;
68821;SDS011;55834;50.870;4.606;2023-02-15T06:27:42;38.73;;;20.53;;
68821;SDS011;55834;50.870;4.606;2023-02-15T06:30:09;39.42;;;21.80;;
68821;SDS011;55834;50.870;4.606;2023-02-15T06:32:35;47.13;;;25.20;;
68821;SDS011;55834;50.870;4.606;2023-02-15T06:35:01;42.57;;;22.93;;
68821;SDS011;55834;50.870;4.606;2023-02-15T06:37:26;39.20;;;21.13;;
68821;SDS011;55834;50.870;4.606;2023-02-15T06:39:51;30.27;;;16.77;;
68821;SDS011;55834;50.870;4.606;2023-02-15T06:42:17;36.33;;;19.50;;
68821;SDS011;55834;50.870;4.606;2023-02-15T06:44:43;35.60;;;18.38;;
68821;SDS011;55834;50.870;4.606;2023-02-15T06:47:09;35.90;;;17.90;;
68821;SDS011;55834;50.870;4.606;2023-02-15T06:49:35;28.20;;;17.13;;
68821;SDS011;55834;50.870;4.606;2023-02-15T06:52:01;34.78;;;16.08;;
68821;SDS011;55834;50.870;4.606;2023-02-15T06:54:26;35.13;;;18.20;;
68821;SDS011;55834;50.870;4.606;2023-02-15T06:56:51;32.87;;;16.97;;
68821;SDS011;55834;50.870;4.606;2023-02-15T06:59:17;33.37;;;17.13;;
68821;SDS011;55834;50.870;4.606;2023-02-15T07:01:42;31.43;;;17.27;;
68821;SDS011;55834;50.870;4.606;2023-02-15T07:04:07;38.75;;;17.17;;
68821;SDS011;55834;50.870;4.606;2023-02-15T07:06:33;36.80;;;18.10;;
68821;SDS011;55834;50.870;4.606;2023-02-15T07:08:59;37.53;;;20.65;;
68821;SDS011;55834;50.870;4.606;2023-02-15T07:11:25;34.45;;;16.98;;
68821;SDS011;55834;50.870;4.606;2023-02-15T07:14:09;31.30;;;17.63;;
68821;SDS011;55834;50.870;4.606;2023-02-15T07:16:34;34.63;;;16.30;;
68821;SDS011;55834;50.870;4.606;2023-02-15T07:18:59;32.10;;;15.77;;
68821;SDS011;55834;50.870;4.606;2023-02-15T07:21:25;35.47;;;18.40;;
68821;SDS011;55834;50.870;4.606;2023-02-15T07:23:50;35.47;;;18.00;;
68821;SDS011;55834;50.870;4.606;2023-02-15T07:26:15;32.23;;;16.37;;
68821;SDS011;55834;50.870;4.606;2023-02-15T07:28:41;33.40;;;18.67;;
68821;SDS011;55834;50.870;4.606;2023-02-15T07:31:06;34.60;;;18.48;;
68821;SDS011;55834;50.870;4.606;2023-02-15T07:33:32;34.30;;;18.40;;
68821;SDS011;55834;50.870;4.606;2023-02-15T07:35:59;34.83;;;17.65;;
68821;SDS011;55834;50.870;4.606;2023-02-15T07:38:27;38.22;;;18.13;;
68821;SDS011;55834;50.870;4.606;2023-02-15T07:40:59;49.95;;;21.45;;
68821;SDS011;55834;50.870;4.606;2023-02-15T07:43:28;62.47;;;32.25;;
68821;SDS011;55834;50.870;4.606;2023-02-15T07:45:54;53.60;;;25.08;;
68821;SDS011;55834;50.870;4.606;2023-02-15T07:48:23;42.97;;;21.15;;
68821;SDS011;55834;50.870;4.606;2023-02-15T07:50:48;51.67;;;27.10;;
68821;SDS011;55834;50.870;4.606;2023-02-15T07:53:14;39.97;;;18.63;;
68821;SDS011;55834;50.870;4.606;2023-02-15T07:55:39;34.87;;;17.57;;
68821;SDS011;55834;50.870;4.606;2023-02-15T07:58:04;38.20;;;18.47;;
68821;SDS011;55834;50.870;4.606;2023-02-15T08:00:29;35.67;;;17.43;;
68821;SDS011;55834;50.870;4.606;2023-02-15T08:03:15;35.25;;;17.40;;
68821;SDS011;55834;50.870;4.606;2023-02-15T08:05:43;32.77;;;18.33;;
68821;SDS011;55834;50.870;4.606;2023-02-15T08:08:10;30.75;;;16.77;;
68821;SDS011;55834;50.870;4.606;2023-02-15T08:10:58;35.80;;;17.52;;
68821;SDS011;55834;50.870;4.606;2023-02-15T08:13:46;40.30;;;20.60;;
68821;SDS011;55834;50.870;4.606;2023-02-15T08:16:19;39.33;;;17.13;;
68821;SDS011;55834;50.870;4.606;2023-02-15T08:18:53;38.75;;;18.02;;
68821;SDS011;55834;50.870;4.606;2023-02-15T08:21:19;33.65;;;18.08;;
68821;SDS011;55834;50.870;4.606;2023-02-15T08:23:45;35.65;;;16.77;;
68821;SDS011;55834;50.870;4.606;2023-02-15T08:26:11;35.10;;;19.13;;
68821;SDS011;55834;50.870;4.606;2023-02-15T08:28:36;40.67;;;18.48;;
68821;SDS011;55834;50.870;4.606;2023-02-15T08:31:09;33.97;;;18.10;;
68821;SDS011;55834;50.870;4.606;2023-02-15T08:33:37;36.80;;;19.10;;
68821;SDS011;55834;50.870;4.606;2023-02-15T08:36:04;35.92;;;16.75;;
68821;SDS011;55834;50.870;4.606;2023-02-15T08:40:57;29.98;;;16.17;;
68821;SDS011;55834;50.870;4.606;2023-02-15T08:43:23;36.65;;;17.42;;
68821;SDS011;55834;50.870;4.606;2023-02-15T08:45:48;37.80;;;17.70;;
68821;SDS011;55834;50.870;4.606;2023-02-15T08:48:13;32.30;;;16.63;;
68821;SDS011;55834;50.870;4.606;2023-02-15T08:50:39;37.20;;;17.53;;
68821;SDS011;55834;50.870;4.606;2023-02-15T08:53:05;32.75;;;19.02;;
68821;SDS011;55834;50.870;4.606;2023-02-15T08:55:30;40.67;;;18.43;;
68821;SDS011;55834;50.870;4.606;2023-02-15T08:57:55;36.97;;;19.37;;
68821;SDS011;55834;50.870;4.606;2023-02-15T09:00:22;35.25;;;16.85;;
68821;SDS011;55834;50.870;4.606;2023-02-15T09:02:47;34.88;;;18.35;;
68821;SDS011;55834;50.870;4.606;2023-02-15T09:05:13;36.45;;;17.13;;
68821;SDS011;55834;50.870;4.606;2023-02-15T09:07:38;37.28;;;17.38;;
68821;SDS011;55834;50.870;4.606;2023-02-15T09:10:04;34.10;;;16.17;;
68821;SDS011;55834;50.870;4.606;2023-02-15T09:12:30;33.47;;;18.17;;
68821;SDS011;55834;50.870;4.606;2023-02-15T09:14:56;29.60;;;14.57;;
68821;SDS011;55834;50.870;4.606;2023-02-15T09:17:21;31.33;;;17.10;;
68821;SDS011;55834;50.870;4.606;2023-02-15T09:19:46;33.13;;;15.17;;
68821;SDS011;55834;50.870;4.606;2023-02-15T09:22:12;36.27;;;17.07;;
68821;SDS011;55834;50.870;4.606;2023-02-15T09:24:37;37.60;;;16.93;;
68821;SDS011;55834;50.870;4.606;2023-02-15T09:27:02;29.27;;;15.40;;
68821;SDS011;55834;50.870;4.606;2023-02-15T09:29:28;29.85;;;16.65;;
68821;SDS011;55834;50.870;4.606;2023-02-15T09:31:53;33.92;;;17.25;;
68821;SDS011;55834;50.870;4.606;2023-02-15T09:34:20;28.47;;;15.37;;
68821;SDS011;55834;50.870;4.606;2023-02-15T09:36:47;35.47;;;18.80;;
68821;SDS011;55834;50.870;4.606;2023-02-15T09:39:14;33.13;;;16.08;;
68821;SDS011;55834;50.870;4.606;2023-02-15T09:55:17;26.83;;;14.30;;
68821;SDS011;55834;50.870;4.606;2023-02-15T10:05:59;28.67;;;14.02;;
68821;SDS011;55834;50.870;4.606;2023-02-15T10:28:09;35.42;;;15.63;;
68821;SDS011;55834;50.870;4.606;2023-02-15T10:30:48;35.00;;;15.68;;
68821;SDS011;55834;50.870;4.606;2023-02-15T10:47:17;31.35;;;13.07;;
68821;SDS011;55834;50.870;4.606;2023-02-15T10:55:59;32.92;;;14.32;;
68821;SDS011;55834;50.870;4.606;2023-02-15T11:01:26;29.67;;;15.95;;
68821;SDS011;55834;50.870;4.606;2023-02-15T11:06:41;25.35;;;11.98;;
68821;SDS011;55834;50.870;4.606;2023-02-15T11:09:13;23.40;;;12.60;;
68821;SDS011;55834;50.870;4.606;2023-02-15T11:11:44;28.55;;;13.40;;
68821;SDS011;55834;50.870;4.606;2023-02-15T11:16:57;30.90;;;14.93;;
68821;SDS011;55834;50.870;4.606;2023-02-15T11:19:33;28.60;;;15.23;;
68821;SDS011;55834;50.870;4.606;2023-02-15T11:22:04;32.30;;;16.48;;
68821;SDS011;55834;50.870;4.606;2023-02-15T11:24:32;33.00;;;14.57;;
68821;SDS011;55834;50.870;4.606;2023-02-15T11:27:10;27.98;;;13.77;;
68821;SDS011;55834;50.870;4.606;2023-02-15T11:32:20;26.40;;;13.27;;
68821;SDS011;55834;50.870;4.606;2023-02-15T11:37:16;24.80;;;13.33;;
68821;SDS011;55834;50.870;4.606;2023-02-15T11:39:45;28.63;;;14.55;;
68821;SDS011;55834;50.870;4.606;2023-02-15T11:42:17;27.30;;;14.25;;
68821;SDS011;55834;50.870;4.606;2023-02-15T11:47:32;24.63;;;11.70;;
68821;SDS011;55834;50.870;4.606;2023-02-15T11:49:57;25.30;;;14.18;;
68821;SDS011;55834;50.870;4.606;2023-02-15T11:52:24;29.55;;;15.05;;
68821;SDS011;55834;50.870;4.606;2023-02-15T11:54:50;27.77;;;14.30;;
68821;SDS011;55834;50.870;4.606;2023-02-15T11:57:23;26.52;;;14.50;;
68821;SDS011;55834;50.870;4.606;2023-02-15T12:00:40;28.77;;;13.63;;
68821;SDS011;55834;50.870;4.606;2023-02-15T12:03:14;30.00;;;14.00;;
68821;SDS011;55834;50.870;4.606;2023-02-15T12:05:44;28.40;;;13.10;;
68821;SDS011;55834;50.870;4.606;2023-02-15T12:08:19;23.75;;;12.35;;
68821;SDS011;55834;50.870;4.606;2023-02-15T12:10:51;25.48;;;12.60;;
68821;SDS011;55834;50.870;4.606;2023-02-15T12:13:23;30.75;;;12.80;;
68821;SDS011;55834;50.870;4.606;2023-02-15T12:15:52;24.93;;;13.97;;
68821;SDS011;55834;50.870;4.606;2023-02-15T12:21:05;29.35;;;14.13;;
68821;SDS011;55834;50.870;4.606;2023-02-15T12:23:34;25.35;;;14.85;;
68821;SDS011;55834;50.870;4.606;2023-02-15T12:26:23;23.10;;;13.95;;
68821;SDS011;55834;50.870;4.606;2023-02-15T12:28:50;27.63;;;15.38;;
68821;SDS011;55834;50.870;4.606;2023-02-15T12:31:20;27.40;;;13.07;;
68821;SDS011;55834;50.870;4.606;2023-02-15T12:33:50;27.33;;;13.48;;
68821;SDS011;55834;50.870;4.606;2023-02-15T12:36:29;24.38;;;12.95;;
68821;SDS011;55834;50.870;4.606;2023-02-15T12:41:37;27.67;;;14.88;;
68821;SDS011;55834;50.870;4.606;2023-02-15T12:44:28;24.05;;;11.65;;
68821;SDS011;55834;50.870;4.606;2023-02-15T12:46:59;26.05;;;13.70;;
68821;SDS011;55834;50.870;4.606;2023-02-15T12:49:27;26.75;;;15.20;;
68821;SDS011;55834;50.870;4.606;2023-02-15T12:52:22;26.83;;;14.30;;
68821;SDS011;55834;50.870;4.606;2023-02-15T12:54:45;29.55;;;14.90;;
68821;SDS011;55834;50.870;4.606;2023-02-15T12:57:30;25.02;;;12.57;;
68821;SDS011;55834;50.870;4.606;2023-02-15T12:59:58;25.25;;;14.23;;
68821;SDS011;55834;50.870;4.606;2023-02-15T13:02:30;25.38;;;14.32;;
68821;SDS011;55834;50.870;4.606;2023-02-15T13:05:10;24.58;;;12.73;;
68821;SDS011;55834;50.870;4.606;2023-02-15T13:07:44;25.73;;;12.52;;
68821;SDS011;55834;50.870;4.606;2023-02-15T13:13:14;29.38;;;13.88;;
68821;SDS011;55834;50.870;4.606;2023-02-15T13:15:47;26.08;;;13.38;;
68821;SDS011;55834;50.870;4.606;2023-02-15T13:18:16;33.72;;;14.73;;
68821;SDS011;55834;50.870;4.606;2023-02-15T13:20:48;26.00;;;14.63;;
68821;SDS011;55834;50.870;4.606;2023-02-15T13:23:22;27.08;;;15.05;;
68821;SDS011;55834;50.870;4.606;2023-02-15T13:25:52;27.85;;;15.10;;
68821;SDS011;55834;50.870;4.606;2023-02-15T13:28:20;30.40;;;13.73;;
68821;SDS011;55834;50.870;4.606;2023-02-15T13:30:49;35.13;;;17.17;;
68821;SDS011;55834;50.870;4.606;2023-02-15T13:33:34;30.58;;;14.60;;
68821;SDS011;55834;50.870;4.606;2023-02-15T13:41:23;29.63;;;16.67;;
68821;SDS011;55834;50.870;4.606;2023-02-15T13:44:15;33.88;;;16.55;;
68821;SDS011;55834;50.870;4.606;2023-02-15T13:47:11;29.38;;;14.55;;
68821;SDS011;55834;50.870;4.606;2023-02-15T13:52:51;24.40;;;13.73;;
68821;SDS011;55834;50.870;4.606;2023-02-15T13:58:57;26.65;;;13.93;;
68821;SDS011;55834;50.870;4.606;2023-02-15T14:01:48;27.50;;;14.05;;
68821;SDS011;55834;50.870;4.606;2023-02-15T14:20:54;28.20;;;14.52;;
68821;SDS011;55834;50.870;4.606;2023-02-15T14:23:37;30.65;;;16.30;;
68821;SDS011;55834;50.870;4.606;2023-02-15T14:26:09;31.55;;;16.67;;
68821;SDS011;55834;50.870;4.606;2023-02-15T14:29:14;31.42;;;16.55;;
68821;SDS011;55834;50.870;4.606;2023-02-15T14:31:30;30.00;;;16.52;;
68821;SDS011;55834;50.870;4.606;2023-02-15T14:34:00;27.90;;;14.48;;
68821;SDS011;55834;50.870;4.606;2023-02-15T14:36:26;31.60;;;15.60;;
68821;SDS011;55834;50.870;4.606;2023-02-15T14:42:07;32.40;;;18.33;;
68821;SDS011;55834;50.870;4.606;2023-02-15T14:44:42;30.10;;;14.43;;
68821;SDS011;55834;50.870;4.606;2023-02-15T14:49:50;26.48;;;14.85;;
68821;SDS011;55834;50.870;4.606;2023-02-15T14:52:15;32.40;;;15.70;;
68821;SDS011;55834;50.870;4.606;2023-02-15T14:59:45;29.43;;;17.30;;
68821;SDS011;55834;50.870;4.606;2023-02-15T15:02:47;28.63;;;13.40;;
68821;SDS011;55834;50.870;4.606;2023-02-15T15:07:54;29.20;;;15.02;;
68821;SDS011;55834;50.870;4.606;2023-02-15T15:12:49;28.38;;;16.65;;
68821;SDS011;55834;50.870;4.606;2023-02-15T15:20:39;28.52;;;15.50;;
68821;SDS011;55834;50.870;4.606;2023-02-15T15:25:45;27.98;;;14.13;;
68821;SDS011;55834;50.870;4.606;2023-02-15T15:37:00;27.20;;;14.07;;
68821;SDS011;55834;50.870;4.606;2023-02-15T15:50:56;29.73;;;14.80;;
68821;SDS011;55834;50.870;4.606;2023-02-15T15:53:45;27.55;;;14.23;;
68821;SDS011;55834;50.870;4.606;2023-02-15T15:56:17;25.65;;;13.32;;
68821;SDS011;55834;50.870;4.606;2023-02-15T15:59:04;23.83;;;14.02;;
68821;SDS011;55834;50.870;4.606;2023-02-15T16:01:40;23.70;;;12.00;;
68821;SDS011;55834;50.870;4.606;2023-02-15T16:04:21;25.83;;;13.50;;
68821;SDS011;55834;50.870;4.606;2023-02-15T16:06:51;28.15;;;14.57;;
68821;SDS011;55834;50.870;4.606;2023-02-15T16:11:43;28.33;;;13.40;;
68821;SDS011;55834;50.870;4.606;2023-02-15T16:14:15;28.30;;;13.68;;
68821;SDS011;55834;50.870;4.606;2023-02-15T16:16:46;26.88;;;14.95;;
68821;SDS011;55834;50.870;4.606;2023-02-15T16:19:17;24.58;;;13.63;;
68821;SDS011;55834;50.870;4.606;2023-02-15T16:21:46;28.58;;;13.57;;
68821;SDS011;55834;50.870;4.606;2023-02-15T16:24:26;26.30;;;14.73;;
68821;SDS011;55834;50.870;4.606;2023-02-15T16:27:08;37.70;;;17.27;;
68821;SDS011;55834;50.870;4.606;2023-02-15T16:29:36;44.95;;;22.13;;
68821;SDS011;55834;50.870;4.606;2023-02-15T16:32:24;84.33;;;34.63;;
68821;SDS011;55834;50.870;4.606;2023-02-15T16:34:59;46.42;;;23.33;;
68821;SDS011;55834;50.870;4.606;2023-02-15T16:37:27;39.67;;;19.02;;
68821;SDS011;55834;50.870;4.606;2023-02-15T16:39:57;40.20;;;19.17;;
68821;SDS011;55834;50.870;4.606;2023-02-15T16:42:23;47.15;;;19.90;;
68821;SDS011;55834;50.870;4.606;2023-02-15T16:44:51;52.80;;;22.60;;
68821;SDS011;55834;50.870;4.606;2023-02-15T16:47:24;50.28;;;22.08;;
68821;SDS011;55834;50.870;4.606;2023-02-15T16:49:53;63.72;;;28.10;;
68821;SDS011;55834;50.870;4.606;2023-02-15T16:52:24;79.88;;;37.65;;
68821;SDS011;55834;50.870;4.606;2023-02-15T16:54:58;46.03;;;24.88;;
68821;SDS011;55834;50.870;4.606;2023-02-15T16:57:28;41.45;;;22.23;;
68821;SDS011;55834;50.870;4.606;2023-02-15T17:00:00;34.20;;;19.92;;
68821;SDS011;55834;50.870;4.606;2023-02-15T17:02:30;38.85;;;19.00;;
68821;SDS011;55834;50.870;4.606;2023-02-15T17:07:41;34.97;;;18.48;;
68821;SDS011;55834;50.870;4.606;2023-02-15T17:13:23;36.28;;;17.70;;
68821;SDS011;55834;50.870;4.606;2023-02-15T17:18:27;37.00;;;19.70;;
68821;SDS011;55834;50.870;4.606;2023-02-15T17:20:56;31.23;;;18.58;;
68821;SDS011;55834;50.870;4.606;2023-02-15T17:26:20;47.47;;;24.48;;
68821;SDS011;55834;50.870;4.606;2023-02-15T17:28:51;49.72;;;24.80;;
68821;SDS011;55834;50.870;4.606;2023-02-15T17:31:21;38.50;;;20.65;;
68821;SDS011;55834;50.870;4.606;2023-02-15T17:33:51;37.67;;;21.70;;
68821;SDS011;55834;50.870;4.606;2023-02-15T17:36:23;34.00;;;19.42;;
68821;SDS011;55834;50.870;4.606;2023-02-15T17:41:21;36.80;;;19.85;;
68821;SDS011;55834;50.870;4.606;2023-02-15T17:43:46;41.27;;;20.20;;
68821;SDS011;55834;50.870;4.606;2023-02-15T17:46:12;43.83;;;20.70;;
68821;SDS011;55834;50.870;4.606;2023-02-15T17:48:37;41.28;;;20.65;;
68821;SDS011;55834;50.870;4.606;2023-02-15T17:51:06;37.35;;;19.65;;
68821;SDS011;55834;50.870;4.606;2023-02-15T17:53:36;38.97;;;19.10;;
68821;SDS011;55834;50.870;4.606;2023-02-15T17:56:01;39.00;;;20.80;;
68821;SDS011;55834;50.870;4.606;2023-02-15T17:58:35;43.75;;;22.58;;
68821;SDS011;55834;50.870;4.606;2023-02-15T18:01:04;37.30;;;17.98;;
68821;SDS011;55834;50.870;4.606;2023-02-15T18:04:00;36.05;;;19.92;;
68821;SDS011;55834;50.870;4.606;2023-02-15T18:06:44;44.85;;;22.20;;